createdAt,value
2022-11-28T00:01:47.862Z,21.03
2022-11-28T00:04:15.545Z,21.93
2022-11-28T00:06:45.914Z,21.43
2022-11-28T00:09:16.656Z,21.07
2022-11-28T00:11:45.436Z,20.63
2022-11-28T00:14:14.288Z,21.33
2022-11-28T00:16:41.761Z,21.80
2022-11-28T00:19:10.033Z,21.43
2022-11-28T00:21:37.719Z,21.17
2022-11-28T00:24:05.636Z,21.80
2022-11-28T00:26:35.314Z,21.83
2022-11-28T00:29:03.950Z,23.37
2022-11-28T00:31:35.543Z,21.40
2022-11-28T00:34:03.435Z,21.57
2022-11-28T00:36:31.014Z,21.83
2022-11-28T00:38:58.467Z,22.80
2022-11-28T00:41:29.467Z,23.10
2022-11-28T00:43:57.227Z,23.27
2022-11-28T00:46:25.377Z,23.40
2022-11-28T00:48:54.629Z,23.17
2022-11-28T00:51:23.703Z,23.40
2022-11-28T00:53:53.199Z,23.50
2022-11-28T00:56:22.398Z,24.00
2022-11-28T00:58:50.006Z,23.37
2022-11-28T01:01:19.066Z,23.30
2022-11-28T01:03:47.170Z,23.10
2022-11-28T01:06:22.053Z,23.47
2022-11-28T01:08:49.480Z,23.30
2022-11-28T01:11:17.007Z,23.63
2022-11-28T01:13:44.509Z,24.00
2022-11-28T01:16:12.042Z,23.87
2022-11-28T01:18:39.628Z,23.43
2022-11-28T01:21:07.722Z,23.33
2022-11-28T01:23:36.679Z,23.63
2022-11-28T01:26:05.524Z,22.83
2022-11-28T01:28:33.224Z,23.70
2022-11-28T01:31:04.433Z,22.43
2022-11-28T01:33:31.992Z,21.97
2022-11-28T01:36:00.207Z,22.57
2022-11-28T01:38:28.273Z,22.60
2022-11-28T01:40:57.293Z,23.23
2022-11-28T01:43:25.468Z,22.93
2022-11-28T01:45:53.323Z,22.47
2022-11-28T01:48:23.540Z,23.20
2022-11-28T01:50:51.287Z,22.40
2022-11-28T01:53:18.864Z,23.10
2022-11-28T01:55:49.924Z,22.53
2022-11-28T01:58:18.757Z,22.27
2022-11-28T02:00:47.284Z,22.57
2022-11-28T02:03:19.315Z,23.20
2022-11-28T02:05:47.448Z,23.60
2022-11-28T02:08:14.939Z,22.60
2022-11-28T02:10:53.959Z,22.10
2022-11-28T02:13:31.112Z,22.13
2022-11-28T02:16:14.496Z,23.27
2022-11-28T02:18:53.052Z,23.47
2022-11-28T02:21:25.572Z,22.43
2022-11-28T02:24:17.358Z,23.40
2022-11-28T02:26:59.475Z,23.23
2022-11-28T02:29:49.566Z,22.53
2022-11-28T02:32:28.673Z,22.63
2022-11-28T02:34:58.130Z,23.53
2022-11-28T02:37:29.975Z,22.63
2022-11-28T02:40:06.607Z,22.73
2022-11-28T02:42:41.192Z,22.73
2022-11-28T02:45:11.487Z,22.13
2022-11-28T02:47:44.723Z,22.30
2022-11-28T02:50:15.059Z,23.60
2022-11-28T02:52:46.588Z,22.73
2022-11-28T02:55:14.932Z,22.80
2022-11-28T02:57:44.275Z,23.53
2022-11-28T03:00:30.097Z,24.60
2022-11-28T03:03:27.080Z,24.67
2022-11-28T03:05:59.591Z,24.50
2022-11-28T03:08:37.654Z,24.57
2022-11-28T03:11:11.131Z,24.60
2022-11-28T03:13:41.118Z,24.33
2022-11-28T03:16:15.665Z,25.27
2022-11-28T03:18:48.919Z,25.67
2022-11-28T03:21:20.183Z,24.87
2022-11-28T03:23:49.853Z,24.63
2022-11-28T03:26:20.286Z,25.30
2022-11-28T03:28:52.707Z,25.37
2022-11-28T03:31:23.238Z,25.00
2022-11-28T03:33:56.621Z,24.07
2022-11-28T03:36:27.608Z,25.30
2022-11-28T03:39:00.516Z,24.93
2022-11-28T03:41:30.867Z,26.30
2022-11-28T03:43:59.389Z,25.20
2022-11-28T03:46:31.785Z,25.67
2022-11-28T03:49:01.641Z,24.70
2022-11-28T03:51:31.952Z,25.10
2022-11-28T03:54:02.532Z,26.23
2022-11-28T03:56:36.003Z,24.53
2022-11-28T03:59:07.507Z,23.87
2022-11-28T04:01:38.145Z,24.33
2022-11-28T04:04:13.251Z,25.50
2022-11-28T04:06:51.773Z,28.57
2022-11-28T04:09:21.088Z,27.87
2022-11-28T04:11:53.184Z,27.03
2022-11-28T04:14:25.636Z,26.67
2022-11-28T04:16:54.558Z,26.60
2022-11-28T04:19:26.751Z,26.67
2022-11-28T04:21:58.315Z,27.27
2022-11-28T04:24:28.207Z,26.40
2022-11-28T04:26:58.288Z,25.60
2022-11-28T04:29:26.175Z,23.70
2022-11-28T04:31:56.604Z,24.17
2022-11-28T04:34:26.687Z,23.53
2022-11-28T04:36:54.988Z,24.17
2022-11-28T04:39:24.363Z,23.07
2022-11-28T04:41:54.834Z,22.60
2022-11-28T04:44:28.577Z,22.73
2022-11-28T04:46:57.810Z,22.73
2022-11-28T04:49:27.534Z,22.33
2022-11-28T04:52:00.162Z,22.60
2022-11-28T04:54:31.520Z,23.23
2022-11-28T04:57:01.920Z,25.17
2022-11-28T04:59:31.317Z,26.70
2022-11-28T05:01:59.743Z,25.70
2022-11-28T05:04:28.783Z,27.00
2022-11-28T05:07:03.115Z,26.80
2022-11-28T05:09:30.578Z,26.77
2022-11-28T05:11:58.145Z,27.60
2022-11-28T05:14:25.699Z,27.47
2022-11-28T05:16:53.183Z,26.20
2022-11-28T05:19:20.696Z,26.07
2022-11-28T05:21:49.467Z,26.20
2022-11-28T05:24:17.032Z,26.77
2022-11-28T05:26:44.496Z,25.70
2022-11-28T05:29:11.966Z,26.17
2022-11-28T05:31:39.483Z,27.10
2022-11-28T05:34:06.987Z,26.63
2022-11-28T05:36:34.452Z,27.17
2022-11-28T05:39:03.246Z,26.93
2022-11-28T05:41:32.675Z,27.60
2022-11-28T05:44:00.836Z,27.30
2022-11-28T05:46:29.527Z,27.23
2022-11-28T05:48:57.580Z,27.73
2022-11-28T05:51:25.072Z,27.80
2022-11-28T05:53:52.587Z,27.83
2022-11-28T05:56:22.921Z,27.33
2022-11-28T05:58:50.423Z,26.30
2022-11-28T06:01:19.718Z,27.83
2022-11-28T06:03:47.615Z,27.73
2022-11-28T06:06:17.053Z,27.23
2022-11-28T06:08:45.301Z,27.80
2022-11-28T06:11:14.703Z,28.33
2022-11-28T06:13:43.816Z,28.43
2022-11-28T06:16:12.432Z,27.80
2022-11-28T06:18:40.345Z,27.67
2022-11-28T06:21:09.312Z,28.63
2022-11-28T06:23:38.335Z,27.67
2022-11-28T06:26:07.384Z,28.83
2022-11-28T06:28:35.291Z,30.20
2022-11-28T06:31:04.674Z,30.27
2022-11-28T06:33:32.161Z,28.43
2022-11-28T06:36:00.893Z,30.30
2022-11-28T06:38:28.473Z,32.47
2022-11-28T06:40:57.521Z,28.93
2022-11-28T06:43:25.119Z,27.20
2022-11-28T06:45:52.875Z,27.30
2022-11-28T06:48:21.689Z,27.50
2022-11-28T06:50:49.552Z,27.47
2022-11-28T06:53:17.291Z,26.97
2022-11-28T06:55:44.846Z,28.03
2022-11-28T06:58:12.471Z,27.93
2022-11-28T07:00:40.218Z,27.77
2022-11-28T07:03:07.898Z,26.77
2022-11-28T07:05:36.731Z,27.77
2022-11-28T07:08:04.203Z,27.00
2022-11-28T07:10:31.906Z,29.00
2022-11-28T07:13:05.086Z,26.37
2022-11-28T07:15:33.101Z,27.20
2022-11-28T07:18:00.862Z,26.43
2022-11-28T07:20:28.313Z,26.30
2022-11-28T07:22:57.149Z,32.57
2022-11-28T07:25:24.555Z,32.30
2022-11-28T07:27:52.031Z,30.73
2022-11-28T07:30:19.956Z,30.33
2022-11-28T07:32:47.382Z,29.20
2022-11-28T07:35:14.823Z,29.10
2022-11-28T07:37:42.234Z,29.27
2022-11-28T07:40:13.389Z,26.80
2022-11-28T07:42:40.784Z,27.40
2022-11-28T07:45:10.843Z,28.07
2022-11-28T07:47:39.733Z,28.37
2022-11-28T07:50:08.416Z,28.73
2022-11-28T07:52:35.838Z,30.23
2022-11-28T07:55:03.347Z,30.10
2022-11-28T07:57:32.132Z,31.07
2022-11-28T07:59:59.648Z,26.57
2022-11-28T08:02:27.880Z,28.23
2022-11-28T08:04:55.769Z,27.47
2022-11-28T08:07:23.282Z,28.03
2022-11-28T08:09:53.071Z,30.23
2022-11-28T08:12:20.511Z,28.67
2022-11-28T08:14:49.366Z,30.17
2022-11-28T08:17:16.973Z,30.60
2022-11-28T08:19:44.394Z,29.70
2022-11-28T08:22:11.844Z,28.73
2022-11-28T08:24:39.491Z,29.47
2022-11-28T08:27:07.014Z,30.27
2022-11-28T08:29:34.473Z,29.10
2022-11-28T08:32:03.271Z,28.60
2022-11-28T08:34:30.668Z,29.10
2022-11-28T08:36:58.284Z,29.30
2022-11-28T08:39:25.794Z,29.17
2022-11-28T08:41:54.068Z,28.40
2022-11-28T08:44:21.491Z,28.03
2022-11-28T08:46:48.950Z,27.70
2022-11-28T08:49:17.752Z,27.53
2022-11-28T08:51:45.223Z,27.13
2022-11-28T08:54:12.792Z,27.07
2022-11-28T08:56:40.243Z,27.67
2022-11-28T08:59:07.863Z,28.40
2022-11-28T09:01:35.499Z,25.93
2022-11-28T09:04:02.994Z,29.47
2022-11-28T09:06:31.872Z,29.13
2022-11-28T09:08:59.444Z,29.73
2022-11-28T09:11:26.881Z,29.03
2022-11-28T09:13:55.584Z,28.63
2022-11-28T09:16:23.358Z,28.90
2022-11-28T09:18:51.051Z,29.80
2022-11-28T09:21:18.538Z,28.90
2022-11-28T09:23:47.550Z,31.70
2022-11-28T09:26:16.484Z,29.53
2022-11-28T09:28:44.139Z,30.30
2022-11-28T09:31:13.193Z,28.97
2022-11-28T09:33:40.936Z,29.73
2022-11-28T09:36:10.299Z,30.13
2022-11-28T09:38:37.967Z,28.40
2022-11-28T09:41:30.563Z,29.40
2022-11-28T09:44:00.831Z,29.10
2022-11-28T09:46:30.842Z,29.73
2022-11-28T09:49:00.799Z,29.23
2022-11-28T09:51:30.727Z,29.53
2022-11-28T09:54:05.399Z,30.07
2022-11-28T09:56:34.145Z,30.13
2022-11-28T09:59:03.414Z,30.27
2022-11-28T10:01:37.587Z,31.37
2022-11-28T10:04:08.363Z,29.33
2022-11-28T10:06:40.236Z,29.77
2022-11-28T10:09:21.426Z,28.53
2022-11-28T10:12:01.482Z,29.50
2022-11-28T10:15:08.686Z,28.80
2022-11-28T10:17:44.842Z,27.87
2022-11-28T10:20:15.707Z,29.27
2022-11-28T10:22:47.095Z,28.37
2022-11-28T10:25:18.343Z,28.57
2022-11-28T10:27:50.826Z,29.07
2022-11-28T10:30:23.574Z,27.50
2022-11-28T10:32:58.848Z,26.40
2022-11-28T10:35:29.799Z,27.30
2022-11-28T10:37:57.327Z,27.30
2022-11-28T10:40:30.764Z,27.60
2022-11-28T10:43:03.654Z,27.70
2022-11-28T10:45:40.257Z,26.93
2022-11-28T10:51:14.216Z,28.67
2022-11-28T10:53:47.190Z,34.53
2022-11-28T10:56:23.492Z,28.60
2022-11-28T10:58:56.420Z,29.87
2022-11-28T11:01:24.032Z,29.23
2022-11-28T11:03:51.561Z,34.00
2022-11-28T11:06:18.946Z,30.27
2022-11-28T11:08:46.489Z,29.27
2022-11-28T11:11:23.023Z,30.03
2022-11-28T11:14:00.818Z,30.00
2022-11-28T11:16:48.245Z,29.60
2022-11-28T11:19:24.633Z,29.10
2022-11-28T11:22:00.441Z,30.57
2022-11-28T11:24:27.861Z,28.03
2022-11-28T11:26:55.655Z,29.77
2022-11-28T11:29:31.082Z,29.13
2022-11-28T11:32:03.372Z,29.47
2022-11-28T11:34:36.038Z,30.13
2022-11-28T11:37:19.500Z,29.20
2022-11-28T11:39:51.950Z,28.87
2022-11-28T11:42:23.591Z,28.70
2022-11-28T11:44:53.204Z,29.67
2022-11-28T11:47:20.683Z,32.33
2022-11-28T11:49:49.656Z,28.67
2022-11-28T11:52:22.630Z,28.83
2022-11-28T11:54:59.707Z,29.10
2022-11-28T11:57:33.611Z,27.63
2022-11-28T12:00:06.803Z,27.03
2022-11-28T12:02:42.874Z,28.30
2022-11-28T12:05:13.000Z,28.50
2022-11-28T12:07:43.574Z,27.33
2022-11-28T12:10:14.078Z,27.57
2022-11-28T12:12:42.026Z,27.80
2022-11-28T12:15:18.567Z,26.97
2022-11-28T12:17:59.007Z,27.00
2022-11-28T12:20:36.024Z,27.23
2022-11-28T12:23:17.004Z,26.93
2022-11-28T12:25:48.767Z,27.80
2022-11-28T12:28:27.647Z,27.40
2022-11-28T12:31:04.026Z,26.57
2022-11-28T12:33:39.975Z,26.83
2022-11-28T12:36:13.199Z,26.87
2022-11-28T12:38:56.530Z,26.93
2022-11-28T12:41:33.992Z,27.33
2022-11-28T12:44:06.484Z,27.87
2022-11-28T12:46:41.481Z,26.60
2022-11-28T12:49:17.355Z,27.40
2022-11-28T12:51:58.248Z,26.00
2022-11-28T12:54:43.147Z,27.33
2022-11-28T12:57:16.177Z,26.37
2022-11-28T12:59:48.699Z,26.63
2022-11-28T13:02:27.313Z,26.93
2022-11-28T13:05:05.306Z,26.17
2022-11-28T13:07:41.520Z,27.80
2022-11-28T13:10:15.348Z,27.67
2022-11-28T13:12:48.539Z,26.30
2022-11-28T13:15:21.875Z,28.60
2022-11-28T13:17:55.168Z,29.63
2022-11-28T13:20:26.940Z,31.27
2022-11-28T13:23:06.501Z,30.37
2022-11-28T13:25:40.512Z,31.63
2022-11-28T13:28:13.363Z,31.47
2022-11-28T13:30:44.366Z,31.77
2022-11-28T13:33:26.232Z,31.47
2022-11-28T13:35:54.219Z,31.83
2022-11-28T13:38:53.164Z,30.37
2022-11-28T13:41:52.589Z,29.87
2022-11-28T13:44:15.313Z,30.73
2022-11-28T13:46:43.593Z,30.00
2022-11-28T13:49:21.519Z,29.33
2022-11-28T13:51:49.577Z,28.83
2022-11-28T13:54:43.049Z,29.40
2022-11-28T13:57:22.620Z,29.43
2022-11-28T13:59:53.366Z,30.10
2022-11-28T14:02:24.252Z,28.80
2022-11-28T14:04:53.037Z,30.03
2022-11-28T14:07:29.401Z,27.87
2022-11-28T14:10:08.677Z,28.17
2022-11-28T14:12:43.223Z,28.37
2022-11-28T14:15:25.188Z,28.40
2022-11-28T14:18:18.955Z,27.63
2022-11-28T14:20:59.939Z,28.00
2022-11-28T14:23:33.134Z,27.23
2022-11-28T14:26:00.839Z,28.67
2022-11-28T14:28:36.500Z,27.43
2022-11-28T14:31:07.907Z,28.67
2022-11-28T14:33:37.303Z,27.27
2022-11-28T14:36:28.680Z,27.97
2022-11-28T14:39:09.303Z,27.23
2022-11-28T14:42:10.191Z,27.97
2022-11-28T14:44:50.520Z,28.30
2022-11-28T14:47:28.731Z,29.00
2022-11-28T14:50:29.711Z,28.83
2022-11-28T14:55:51.571Z,28.20
2022-11-28T14:58:19.480Z,27.73
2022-11-28T15:00:53.632Z,27.30
2022-11-28T15:03:30.515Z,27.77
2022-11-28T15:06:02.318Z,27.37
2022-11-28T15:08:46.005Z,27.57
2022-11-28T15:11:29.983Z,28.90
2022-11-28T15:14:08.967Z,29.17
2022-11-28T15:16:39.368Z,28.20
2022-11-28T15:19:09.215Z,29.50
2022-11-28T15:21:44.550Z,27.77
2022-11-28T15:24:22.735Z,27.20
2022-11-28T15:26:57.216Z,26.97
2022-11-28T15:29:27.021Z,29.07
2022-11-28T15:31:56.879Z,28.70
2022-11-28T15:34:27.378Z,28.47
2022-11-28T15:36:55.759Z,27.80
2022-11-28T15:39:29.538Z,28.07
2022-11-28T15:42:00.261Z,27.73
2022-11-28T15:44:28.475Z,28.63
2022-11-28T15:46:56.357Z,29.73
2022-11-28T15:49:25.882Z,29.67
2022-11-28T15:51:54.323Z,28.17
2022-11-28T15:54:32.482Z,28.40
2022-11-28T15:57:02.122Z,29.17
2022-11-28T15:59:31.785Z,30.87
2022-11-28T16:02:02.318Z,28.57
2022-11-28T16:04:30.796Z,29.37
2022-11-28T16:06:59.858Z,29.00
2022-11-28T16:09:30.740Z,30.53
2022-11-28T16:11:58.211Z,31.60
2022-11-28T16:14:29.910Z,29.77
2022-11-28T16:17:00.829Z,30.27
2022-11-28T16:19:32.263Z,29.50
2022-11-28T16:22:01.516Z,30.20
2022-11-28T16:24:36.905Z,29.87
2022-11-28T16:27:07.103Z,28.87
2022-11-28T16:29:37.189Z,30.53
2022-11-28T16:32:09.194Z,31.20
2022-11-28T16:34:47.074Z,29.40
2022-11-28T16:37:15.172Z,32.30
2022-11-28T16:39:42.843Z,30.43
2022-11-28T16:42:15.298Z,30.87
2022-11-28T16:44:44.277Z,31.00
2022-11-28T16:47:26.386Z,30.67
2022-11-28T16:50:21.525Z,31.00
2022-11-28T16:52:51.111Z,32.03
2022-11-28T16:55:46.073Z,31.93
2022-11-28T16:58:18.838Z,32.13
2022-11-28T17:01:01.048Z,32.37
2022-11-28T17:03:44.925Z,31.57
2022-11-28T17:06:17.438Z,33.17
2022-11-28T17:08:44.916Z,33.03
2022-11-28T17:11:12.766Z,32.77
2022-11-28T17:13:40.287Z,32.90
2022-11-28T17:16:20.010Z,31.53
2022-11-28T17:18:48.105Z,30.37
2022-11-28T17:21:16.937Z,31.20
2022-11-28T17:23:44.780Z,33.90
2022-11-28T17:26:12.451Z,32.10
2022-11-28T17:28:39.955Z,30.43
2022-11-28T17:31:07.539Z,29.07
2022-11-28T17:33:40.532Z,29.10
2022-11-28T17:36:11.641Z,36.03
2022-11-28T17:38:39.088Z,30.37
2022-11-28T17:41:06.976Z,30.13
2022-11-28T17:43:38.893Z,32.57
2022-11-28T17:46:06.941Z,33.67
2022-11-28T17:48:36.135Z,36.40
2022-11-28T17:51:03.968Z,37.27
2022-11-28T17:53:31.771Z,32.53
2022-11-28T17:55:59.863Z,35.37
2022-11-28T17:58:28.726Z,33.10
2022-11-28T18:01:00.474Z,31.53
2022-11-28T18:03:29.175Z,33.03
2022-11-28T18:06:00.682Z,33.63
2022-11-28T18:08:29.381Z,34.50
2022-11-28T18:11:04.187Z,34.23
2022-11-28T18:13:31.873Z,43.07
2022-11-28T18:15:59.712Z,47.90
2022-11-28T18:18:27.855Z,35.00
2022-11-28T18:20:58.398Z,37.10
2022-11-28T18:23:27.374Z,33.77
2022-11-28T18:25:54.837Z,36.17
2022-11-28T18:28:22.796Z,40.07
2022-11-28T18:30:50.623Z,40.33
2022-11-28T18:33:18.171Z,48.50
2022-11-28T18:35:45.795Z,48.37
2022-11-28T18:38:13.287Z,52.73
2022-11-28T18:40:43.124Z,46.00
2022-11-28T18:43:10.587Z,55.03
2022-11-28T18:45:38.430Z,43.73
2022-11-28T18:48:06.839Z,41.93
2022-11-28T18:50:35.522Z,56.97
2022-11-28T18:53:03.036Z,38.17
2022-11-28T18:55:30.499Z,37.30
2022-11-28T18:57:59.755Z,33.03
2022-11-28T19:00:27.300Z,33.90
2022-11-28T19:02:55.441Z,36.50
2022-11-28T19:05:23.724Z,33.33
2022-11-28T19:07:51.160Z,34.17
2022-11-28T19:10:18.907Z,32.63
2022-11-28T19:12:46.976Z,33.73
2022-11-28T19:15:15.884Z,34.27
2022-11-28T19:17:43.364Z,31.97
2022-11-28T19:20:11.932Z,32.93
2022-11-28T19:22:39.652Z,34.10
2022-11-28T19:25:08.675Z,32.50
2022-11-28T19:27:36.223Z,31.70
2022-11-28T19:30:03.870Z,33.03
2022-11-28T19:32:34.518Z,33.07
2022-11-28T19:35:01.975Z,33.17
2022-11-28T19:37:29.633Z,37.50
2022-11-28T19:40:02.148Z,32.80
2022-11-28T19:42:30.264Z,32.63
2022-11-28T19:44:58.680Z,35.10
2022-11-28T19:47:26.218Z,37.17
2022-11-28T19:49:54.964Z,38.50
2022-11-28T19:52:22.915Z,35.57
2022-11-28T19:54:50.823Z,34.83
2022-11-28T19:57:20.491Z,36.73
2022-11-28T19:59:48.199Z,35.20
2022-11-28T20:02:15.771Z,33.33
2022-11-28T20:04:43.538Z,40.13
2022-11-28T20:07:12.304Z,33.33
2022-11-28T20:09:39.934Z,34.03
2022-11-28T20:12:07.784Z,36.20
2022-11-28T20:14:35.811Z,34.13
2022-11-28T20:17:04.743Z,36.27
2022-11-28T20:19:34.878Z,35.97
2022-11-28T20:22:02.488Z,36.70
2022-11-28T20:24:31.654Z,34.10
2022-11-28T20:26:59.131Z,37.47
2022-11-28T20:29:27.875Z,34.03
2022-11-28T20:31:56.970Z,36.37
2022-11-28T20:34:24.842Z,34.83
2022-11-28T20:36:53.588Z,32.40
2022-11-28T20:39:21.674Z,36.63
2022-11-28T20:41:50.537Z,38.90
2022-11-28T20:44:18.780Z,35.80
2022-11-28T20:46:46.319Z,34.17
2022-11-28T20:49:15.011Z,36.93
2022-11-28T20:51:43.227Z,36.47
2022-11-28T20:54:12.363Z,33.73
2022-11-28T20:59:31.244Z,35.80
2022-11-28T21:01:58.736Z,33.20
2022-11-28T21:04:26.216Z,33.53
2022-11-28T21:06:53.627Z,37.63
2022-11-28T21:09:21.077Z,37.07
2022-11-28T21:11:57.936Z,34.10
2022-11-28T21:14:26.748Z,33.03
2022-11-28T21:16:55.637Z,42.70
2022-11-28T21:19:23.272Z,38.53
2022-11-28T21:21:50.723Z,40.13
2022-11-28T21:24:18.193Z,40.43
2022-11-28T21:26:51.237Z,40.20
2022-11-28T21:29:20.240Z,39.43
2022-11-28T21:31:48.002Z,41.67
2022-11-28T21:34:17.459Z,37.73
2022-11-28T21:36:45.484Z,36.27
2022-11-28T21:39:14.177Z,34.97
2022-11-28T21:41:41.714Z,36.43
2022-11-28T21:44:09.689Z,35.70
2022-11-28T21:46:37.195Z,35.33
2022-11-28T21:49:05.492Z,34.03
2022-11-28T21:51:37.941Z,39.70
2022-11-28T21:54:05.673Z,38.97
2022-11-28T21:56:36.100Z,36.37
2022-11-28T21:59:05.281Z,40.47
2022-11-28T22:01:32.757Z,40.13
2022-11-28T22:04:03.035Z,40.13
2022-11-28T22:06:32.015Z,36.93
2022-11-28T22:09:08.726Z,38.20
2022-11-28T22:11:36.712Z,41.10
2022-11-28T22:14:04.691Z,40.67
2022-11-28T22:16:32.165Z,39.27
2022-11-28T22:19:00.670Z,42.67
2022-11-28T22:21:51.221Z,35.07
2022-11-28T22:24:17.270Z,38.37
2022-11-28T22:26:44.827Z,38.77
2022-11-28T22:29:13.398Z,44.53
2022-11-28T22:31:41.610Z,41.70
2022-11-28T22:34:09.383Z,42.47
2022-11-28T22:36:37.106Z,39.47
2022-11-28T22:39:06.064Z,39.90
2022-11-28T22:41:35.007Z,40.70
2022-11-28T22:44:04.021Z,42.70
2022-11-28T22:46:32.454Z,39.40
2022-11-28T22:49:01.280Z,38.20
2022-11-28T22:51:29.647Z,36.63
2022-11-28T22:53:58.698Z,35.87
2022-11-28T22:56:28.335Z,38.30
2022-11-28T22:58:57.328Z,32.50
2022-11-28T23:01:26.699Z,36.33
2022-11-28T23:03:55.005Z,38.43
2022-11-28T23:06:25.741Z,36.47
2022-11-28T23:08:56.549Z,42.17
2022-11-28T23:11:28.877Z,42.13
2022-11-28T23:13:57.661Z,35.67
2022-11-28T23:16:27.628Z,39.80
2022-11-28T23:18:57.347Z,39.20
2022-11-28T23:21:26.139Z,40.00
2022-11-28T23:23:54.031Z,41.33
2022-11-28T23:26:23.820Z,48.73
2022-11-28T23:28:52.002Z,39.13
2022-11-28T23:31:22.751Z,41.27
2022-11-28T23:33:50.919Z,43.23
2022-11-28T23:36:21.765Z,36.80
2022-11-28T23:38:52.057Z,41.33
2022-11-28T23:41:19.815Z,41.57
2022-11-28T23:43:47.480Z,38.87
2022-11-28T23:46:18.979Z,42.80
2022-11-28T23:48:48.397Z,44.00
2022-11-28T23:51:17.125Z,39.80
2022-11-28T23:53:44.955Z,40.07
2022-11-28T23:56:14.082Z,42.07
2022-11-28T23:58:41.928Z,44.97
